createdAt,value
2023-01-22T00:00:38.414Z,98705.16
2023-01-22T00:03:05.451Z,98705.16
2023-01-22T00:05:32.632Z,98695.19
2023-01-22T00:07:59.711Z,98696.69
2023-01-22T00:10:27.032Z,98699.69
2023-01-22T00:12:54.081Z,98702.25
2023-01-22T00:15:21.746Z,98699.69
2023-01-22T00:17:48.838Z,98701.31
2023-01-22T00:20:16.555Z,98703.25
2023-01-22T00:22:43.994Z,98692.91
2023-01-22T00:25:12.224Z,98698.63
2023-01-22T00:27:40.435Z,98701.63
2023-01-22T00:30:08.568Z,98693.88
2023-01-22T00:32:35.723Z,98708.38
2023-01-22T00:35:02.749Z,98704.19
2023-01-22T00:37:29.969Z,98694.94
2023-01-22T00:39:57.050Z,98697.53
2023-01-22T00:42:24.196Z,98699.03
2023-01-22T00:44:51.294Z,98701.06
2023-01-22T00:47:18.325Z,98706.44
2023-01-22T00:49:45.409Z,98707.63
2023-01-22T00:52:12.451Z,98699.25
2023-01-22T00:54:39.530Z,98700.44
2023-01-22T00:57:06.573Z,98706.56
2023-01-22T00:59:33.666Z,98719.56
2023-01-22T01:02:00.776Z,98717.75
2023-01-22T01:04:28.174Z,98719.69
2023-01-22T01:06:55.862Z,98717.84
2023-01-22T01:09:23.041Z,98717.09
2023-01-22T01:11:50.420Z,98717.09
2023-01-22T01:14:17.689Z,98727.25
2023-01-22T01:16:44.802Z,98715.72
2023-01-22T01:19:12.597Z,98712.59
2023-01-22T01:21:39.711Z,98715.28
2023-01-22T01:24:06.860Z,98720.34
2023-01-22T01:26:35.353Z,98720.00
2023-01-22T01:29:04.418Z,98718.19
2023-01-22T01:31:31.754Z,98722.81
2023-01-22T01:33:59.203Z,98726.59
2023-01-22T01:36:47.064Z,98727.78
2023-01-22T01:39:13.613Z,98715.50
2023-01-22T01:41:42.032Z,98726.94
2023-01-22T01:44:17.823Z,98727.69
2023-01-22T01:46:51.668Z,98734.25
2023-01-22T01:49:32.143Z,98725.72
2023-01-22T01:52:01.891Z,98725.72
2023-01-22T01:54:29.493Z,98726.81
2023-01-22T01:57:02.132Z,98728.75
2023-01-22T01:59:33.658Z,98728.63
2023-01-22T02:02:02.341Z,98741.66
2023-01-22T02:04:29.651Z,98746.28
2023-01-22T02:06:56.837Z,98738.97
2023-01-22T02:09:23.945Z,98743.25
2023-01-22T02:11:51.925Z,98740.13
2023-01-22T02:14:23.285Z,98742.63
2023-01-22T02:17:00.663Z,98741.00
2023-01-22T02:19:27.738Z,98753.28
2023-01-22T02:21:54.855Z,98737.78
2023-01-22T02:24:22.033Z,98751.22
2023-01-22T02:26:49.412Z,98747.03
2023-01-22T02:29:16.651Z,98750.88
2023-01-22T02:31:43.917Z,98760.16
2023-01-22T02:34:11.184Z,98749.38
2023-01-22T02:36:39.864Z,98748.31
2023-01-22T02:39:07.284Z,98740.69
2023-01-22T02:41:35.956Z,98751.44
2023-01-22T02:44:03.080Z,98751.88
2023-01-22T02:46:30.418Z,98743.69
2023-01-22T02:48:57.577Z,98742.63
2023-01-22T02:51:26.507Z,98742.63
2023-01-22T02:53:54.214Z,98746.38
2023-01-22T02:56:22.099Z,98746.38
2023-01-22T02:58:49.314Z,98746.28
2023-01-22T03:01:21.935Z,98740.56
2023-01-22T03:03:51.797Z,98752.41
2023-01-22T03:06:22.690Z,98745.84
2023-01-22T03:08:55.649Z,98750.13
2023-01-22T03:11:23.634Z,98746.38
2023-01-22T03:14:09.561Z,98754.03
2023-01-22T03:16:55.510Z,98752.81
2023-01-22T03:19:42.343Z,98751.44
2023-01-22T03:22:09.574Z,98754.97
2023-01-22T03:24:36.688Z,98761.88
2023-01-22T03:27:04.238Z,98763.41
2023-01-22T03:29:31.305Z,98760.28
2023-01-22T03:31:58.447Z,98757.16
2023-01-22T03:34:26.206Z,98765.00
2023-01-22T03:36:53.292Z,98763.38
2023-01-22T03:39:20.395Z,98771.88
2023-01-22T03:41:47.442Z,98769.63
2023-01-22T03:44:14.742Z,98774.69
2023-01-22T03:46:41.769Z,98776.28
2023-01-22T03:49:09.719Z,98780.16
2023-01-22T03:51:37.003Z,98781.03
2023-01-22T03:54:04.292Z,98780.28
2023-01-22T03:56:31.557Z,98779.53
2023-01-22T03:58:58.691Z,98776.41
2023-01-22T04:01:27.236Z,98784.34
2023-01-22T04:03:54.726Z,98790.41
2023-01-22T04:06:22.753Z,98795.34
2023-01-22T04:08:51.310Z,98789.53
2023-01-22T04:11:18.706Z,98790.72
2023-01-22T04:13:45.891Z,98790.72
2023-01-22T04:16:13.810Z,98797.59
2023-01-22T04:18:41.885Z,98795.66
2023-01-22T04:21:08.941Z,98792.22
2023-01-22T04:23:36.095Z,98796.84
2023-01-22T04:26:03.387Z,98783.84
2023-01-22T04:28:30.465Z,98789.97
2023-01-22T04:30:57.841Z,98788.34
2023-01-22T04:33:24.920Z,98796.75
2023-01-22T04:35:53.428Z,98797.06
2023-01-22T04:38:20.673Z,98790.06
2023-01-22T04:40:47.741Z,98789.63
2023-01-22T04:43:14.883Z,98792.31
2023-01-22T04:45:41.949Z,98795.00
2023-01-22T04:48:11.000Z,98783.50
2023-01-22T04:50:38.248Z,98795.00
2023-01-22T04:53:05.396Z,98796.53
2023-01-22T04:55:32.757Z,98794.59
2023-01-22T04:58:01.146Z,98803.44
2023-01-22T05:00:29.792Z,98801.91
2023-01-22T05:02:58.403Z,98800.41
2023-01-22T05:05:26.004Z,98808.81
2023-01-22T05:07:53.278Z,98816.13
2023-01-22T05:10:20.932Z,98818.03
2023-01-22T05:12:48.349Z,98818.81
2023-01-22T05:15:23.944Z,98815.34
2023-01-22T05:17:54.791Z,98823.44
2023-01-22T05:20:21.882Z,98825.72
2023-01-22T05:22:49.069Z,98825.38
2023-01-22T05:25:16.263Z,98827.75
2023-01-22T05:27:43.770Z,98829.25
2023-01-22T05:30:12.091Z,98838.06
2023-01-22T05:32:39.208Z,98828.81
2023-01-22T05:35:06.542Z,98828.06
2023-01-22T05:37:33.651Z,98836.47
2023-01-22T05:40:00.948Z,98834.63
2023-01-22T05:42:28.131Z,98834.19
2023-01-22T05:44:55.179Z,98833.44
2023-01-22T05:47:22.217Z,98836.88
2023-01-22T05:49:49.353Z,98843.38
2023-01-22T05:52:16.519Z,98842.25
2023-01-22T05:54:43.627Z,98841.50
2023-01-22T05:57:10.671Z,98835.38
2023-01-22T05:59:37.855Z,98843.44
2023-01-22T06:02:04.941Z,98841.19
2023-01-22T06:04:32.153Z,98845.81
2023-01-22T06:06:59.357Z,98845.81
2023-01-22T06:09:26.448Z,98840.44
2023-01-22T06:11:53.548Z,98841.63
2023-01-22T06:14:20.634Z,98849.69
2023-01-22T06:16:47.795Z,98848.84
2023-01-22T06:19:14.867Z,98848.53
2023-01-22T06:21:43.736Z,98851.97
2023-01-22T06:24:11.098Z,98855.84
2023-01-22T06:26:38.155Z,98860.47
2023-01-22T06:29:05.409Z,98862.41
2023-01-22T06:31:32.828Z,98852.41
2023-01-22T06:33:59.983Z,98855.53
2023-01-22T06:36:27.348Z,98869.72
2023-01-22T06:38:54.417Z,98864.34
2023-01-22T06:41:22.559Z,98869.72
2023-01-22T06:43:49.603Z,98871.22
2023-01-22T06:46:16.714Z,98878.56
2023-01-22T06:48:43.912Z,98882.50
2023-01-22T06:51:11.260Z,98901.69
2023-01-22T06:53:38.981Z,98901.69
2023-01-22T06:56:06.423Z,98905.88
2023-01-22T06:58:33.508Z,98910.53
2023-01-22T07:01:05.336Z,98916.22
2023-01-22T07:03:32.371Z,98914.72
2023-01-22T07:06:01.657Z,98915.91
2023-01-22T07:08:30.000Z,98922.03
2023-01-22T07:10:57.140Z,98925.16
2023-01-22T07:13:24.206Z,98925.91
2023-01-22T07:15:51.520Z,98930.44
2023-01-22T07:18:20.887Z,98936.56
2023-01-22T07:20:47.977Z,98929.69
2023-01-22T07:23:15.591Z,98928.06
2023-01-22T07:25:42.739Z,98942.63
2023-01-22T07:28:10.753Z,98943.03
2023-01-22T07:30:38.985Z,98947.22
2023-01-22T07:33:06.069Z,98941.75
2023-01-22T07:35:33.147Z,98936.38
2023-01-22T07:38:00.723Z,98937.44
2023-01-22T07:40:27.891Z,98937.13
2023-01-22T07:42:55.703Z,98946.69
2023-01-22T07:45:24.567Z,98942.38
2023-01-22T07:47:58.910Z,98938.53
2023-01-22T07:50:27.978Z,98946.94
2023-01-22T07:52:55.841Z,98953.06
2023-01-22T07:55:23.128Z,98957.03
2023-01-22T07:58:01.000Z,98961.03
2023-01-22T08:00:28.199Z,98964.16
2023-01-22T08:02:55.476Z,98967.66
2023-01-22T08:05:22.862Z,98970.34
2023-01-22T08:07:50.034Z,98969.53
2023-01-22T08:10:17.749Z,98965.22
2023-01-22T08:12:46.551Z,98966.28
2023-01-22T08:15:14.485Z,98971.25
2023-01-22T08:17:41.853Z,98972.84
2023-01-22T08:20:10.041Z,98980.59
2023-01-22T08:22:37.133Z,98983.63
2023-01-22T08:25:04.401Z,98988.25
2023-01-22T08:27:31.737Z,98990.19
2023-01-22T08:29:58.800Z,98987.50
2023-01-22T08:32:26.948Z,98996.31
2023-01-22T08:34:54.439Z,98992.44
2023-01-22T08:37:22.309Z,98997.84
2023-01-22T08:39:49.666Z,98993.53
2023-01-22T08:42:16.915Z,98995.81
2023-01-22T08:44:43.999Z,99004.63
2023-01-22T08:47:11.513Z,99013.91
2023-01-22T08:49:38.713Z,99008.50
2023-01-22T08:52:06.109Z,99010.84
2023-01-22T08:54:33.291Z,99006.22
2023-01-22T08:57:00.380Z,99009.03
2023-01-22T08:59:29.334Z,99013.66
2023-01-22T09:02:01.025Z,99019.38
2023-01-22T09:04:28.290Z,99021.97
2023-01-22T09:06:55.613Z,99023.88
2023-01-22T09:09:23.174Z,99024.22
2023-01-22T09:11:50.292Z,99028.50
2023-01-22T09:14:17.386Z,99023.13
2023-01-22T09:16:44.514Z,99031.56
2023-01-22T09:19:11.870Z,99033.38
2023-01-22T09:21:39.619Z,99037.91
2023-01-22T09:24:07.224Z,99047.91
2023-01-22T09:26:34.412Z,99045.56
2023-01-22T09:29:04.111Z,99045.16
2023-01-22T09:31:36.086Z,99048.84
2023-01-22T09:34:03.602Z,99039.56
2023-01-22T09:36:30.726Z,99054.97
2023-01-22T09:38:57.875Z,99052.28
2023-01-22T09:41:34.343Z,99048.06
2023-01-22T09:44:08.678Z,99050.34
2023-01-22T09:46:45.692Z,99039.56
2023-01-22T09:49:16.647Z,99037.94
2023-01-22T09:51:46.736Z,99032.88
2023-01-22T09:54:15.563Z,99040.53
2023-01-22T09:56:45.752Z,99039.38
2023-01-22T09:59:18.884Z,99029.75
2023-01-22T10:01:51.481Z,99023.63
2023-01-22T10:04:25.336Z,99023.97
2023-01-22T10:06:54.717Z,99025.47
2023-01-22T10:09:21.769Z,99033.13
2023-01-22T10:11:53.379Z,99037.31
2023-01-22T10:14:22.596Z,99033.44
2023-01-22T10:16:50.697Z,99031.81
2023-01-22T10:19:25.857Z,99031.00
2023-01-22T10:22:06.260Z,99032.16
2023-01-22T10:24:33.295Z,99036.69
2023-01-22T10:27:10.125Z,99038.19
2023-01-22T10:29:38.983Z,99034.00
2023-01-22T10:32:26.508Z,99031.00
2023-01-22T10:35:24.253Z,99044.88
2023-01-22T10:37:54.058Z,99052.22
2023-01-22T10:40:27.308Z,99045.63
2023-01-22T10:43:09.067Z,99050.28
2023-01-22T10:45:36.137Z,99049.91
2023-01-22T10:48:12.428Z,99061.38
2023-01-22T10:50:39.669Z,99069.88
2023-01-22T10:53:18.234Z,99065.56
2023-01-22T10:55:52.235Z,99062.13
2023-01-22T10:58:21.251Z,99070.63
2023-01-22T11:01:00.501Z,99055.75
2023-01-22T11:03:38.460Z,99059.94
2023-01-22T11:06:16.529Z,99069.53
2023-01-22T11:09:13.059Z,99063.63
2023-01-22T11:11:45.148Z,99067.94
2023-01-22T11:14:18.395Z,99068.38
2023-01-22T11:16:47.221Z,99062.97
2023-01-22T11:19:18.169Z,99069.13
2023-01-22T11:21:51.432Z,99066.84
2023-01-22T11:24:32.898Z,99064.13
2023-01-22T11:27:14.740Z,99060.28
2023-01-22T11:30:00.185Z,99059.84
2023-01-22T11:32:30.190Z,99054.34
2023-01-22T11:35:24.611Z,99058.25
2023-01-22T11:38:09.992Z,99060.06
2023-01-22T11:41:01.705Z,99066.44
2023-01-22T11:43:31.445Z,99066.06
2023-01-22T11:46:11.344Z,99062.22
2023-01-22T11:48:57.818Z,99059.19
2023-01-22T11:51:42.176Z,99056.16
2023-01-22T11:54:24.521Z,99055.41
2023-01-22T11:56:57.524Z,99060.13
2023-01-22T11:59:37.609Z,99064.34
2023-01-22T12:02:19.823Z,99056.69
2023-01-22T12:05:11.078Z,99063.19
2023-01-22T12:07:51.994Z,99058.97
2023-01-22T12:10:22.117Z,99051.66
2023-01-22T12:12:57.043Z,99068.22
2023-01-22T12:15:37.628Z,99062.75
2023-01-22T12:18:32.300Z,99069.63
2023-01-22T12:21:08.648Z,99059.28
2023-01-22T12:23:53.499Z,99055.00
2023-01-22T12:26:27.364Z,99046.16
2023-01-22T12:29:14.701Z,99050.34
2023-01-22T12:32:09.215Z,99043.78
2023-01-22T12:34:52.880Z,99043.91
2023-01-22T12:37:23.571Z,99044.31
2023-01-22T12:40:21.450Z,99038.59
2023-01-22T12:42:51.246Z,99038.69
2023-01-22T12:45:25.911Z,99044.53
2023-01-22T12:48:01.367Z,99051.09
2023-01-22T12:50:28.407Z,99057.66
2023-01-22T12:53:03.767Z,99059.50
2023-01-22T12:55:37.817Z,99060.25
2023-01-22T12:58:18.517Z,99065.19
2023-01-22T13:00:45.718Z,99058.63
2023-01-22T13:03:32.732Z,99055.19
2023-01-22T13:06:02.674Z,99044.84
2023-01-22T13:08:43.428Z,99051.84
2023-01-22T13:11:27.322Z,99052.91
2023-01-22T13:14:09.806Z,99056.03
2023-01-22T13:16:41.793Z,99052.91
2023-01-22T13:19:20.802Z,99064.88
2023-01-22T13:21:49.635Z,99068.75
2023-01-22T13:24:19.023Z,99070.38
2023-01-22T13:26:58.875Z,99075.41
2023-01-22T13:29:29.060Z,99083.16
2023-01-22T13:32:04.393Z,99086.59
2023-01-22T13:34:31.983Z,99081.53
2023-01-22T13:36:59.059Z,99078.44
2023-01-22T13:39:29.811Z,99084.22
2023-01-22T13:41:59.958Z,99088.88
2023-01-22T13:44:31.211Z,99083.47
2023-01-22T13:46:58.395Z,99099.97
2023-01-22T13:49:29.088Z,99089.97
2023-01-22T13:52:01.844Z,99090.72
2023-01-22T13:54:32.144Z,99088.69
2023-01-22T13:56:59.448Z,99080.16
2023-01-22T13:59:31.317Z,99085.56
2023-01-22T14:01:58.390Z,99091.28
2023-01-22T14:04:39.191Z,99107.34
2023-01-22T14:07:06.433Z,99091.19
2023-01-22T14:09:38.076Z,99101.50
2023-01-22T14:12:17.389Z,99104.22
2023-01-22T14:14:44.517Z,99099.94
2023-01-22T14:17:29.998Z,99106.91
2023-01-22T14:19:57.933Z,99108.53
2023-01-22T14:22:25.411Z,99104.41
2023-01-22T14:24:52.775Z,99111.41
2023-01-22T14:27:21.791Z,99105.38
2023-01-22T14:29:49.615Z,99112.00
2023-01-22T14:32:16.796Z,99109.00
2023-01-22T14:34:43.838Z,99106.31
2023-01-22T14:37:15.483Z,99104.88
2023-01-22T14:39:42.557Z,99097.56
2023-01-22T14:42:09.601Z,99111.34
2023-01-22T14:44:36.781Z,99101.75
2023-01-22T14:47:04.243Z,99105.94
2023-01-22T14:49:31.493Z,99101.00
2023-01-22T14:51:58.539Z,99104.44
2023-01-22T14:54:25.606Z,99105.94
2023-01-22T14:56:52.767Z,99096.03
2023-01-22T14:59:20.958Z,99092.59
2023-01-22T15:01:48.389Z,99094.22
2023-01-22T15:04:15.635Z,99097.66
2023-01-22T15:06:43.016Z,99097.34
2023-01-22T15:09:10.981Z,99096.91
2023-01-22T15:11:38.161Z,99103.78
2023-01-22T15:14:05.767Z,99099.16
2023-01-22T15:16:33.113Z,99104.97
2023-01-22T15:19:00.223Z,99109.25
2023-01-22T15:21:27.298Z,99105.41
2023-01-22T15:23:54.421Z,99112.31
2023-01-22T15:26:28.164Z,99106.91
2023-01-22T15:28:55.306Z,99111.53
2023-01-22T15:31:22.491Z,99108.84
2023-01-22T15:33:50.649Z,99113.88
2023-01-22T15:36:17.815Z,99117.00
2023-01-22T15:38:45.024Z,99115.50
2023-01-22T15:41:29.585Z,99114.31
2023-01-22T15:44:01.031Z,99117.75
2023-01-22T15:46:29.999Z,99113.88
2023-01-22T15:48:58.129Z,99130.88
2023-01-22T15:51:26.014Z,99124.75
2023-01-22T15:53:55.124Z,99136.28
2023-01-22T15:56:23.417Z,99128.31
2023-01-22T15:58:51.175Z,99135.59
2023-01-22T16:01:19.868Z,99136.69
2023-01-22T16:03:47.128Z,99137.47
2023-01-22T16:06:19.601Z,99137.03
2023-01-22T16:08:46.976Z,99147.03
2023-01-22T16:11:14.164Z,99142.84
2023-01-22T16:13:41.581Z,99151.66
2023-01-22T16:16:25.494Z,99145.53
2023-01-22T16:18:52.741Z,99149.84
2023-01-22T16:21:21.293Z,99149.03
2023-01-22T16:23:52.038Z,99148.66
2023-01-22T16:26:22.296Z,99149.41
2023-01-22T16:28:50.870Z,99154.78
2023-01-22T16:31:21.113Z,99153.59
2023-01-22T16:33:50.886Z,99163.19
2023-01-22T16:36:19.506Z,99162.00
2023-01-22T16:38:47.091Z,99170.75
2023-01-22T16:41:25.649Z,99167.72
2023-01-22T16:43:59.138Z,99174.59
2023-01-22T16:46:28.893Z,99173.47
2023-01-22T16:49:00.846Z,99172.78
2023-01-22T16:51:30.833Z,99171.59
2023-01-22T16:53:57.969Z,99178.47
2023-01-22T16:56:24.991Z,99185.38
2023-01-22T16:58:52.063Z,99181.94
2023-01-22T17:01:19.668Z,99182.69
2023-01-22T17:03:46.802Z,99185.72
2023-01-22T17:06:22.312Z,99191.44
2023-01-22T17:08:50.004Z,99183.78
2023-01-22T17:11:17.455Z,99183.03
2023-01-22T17:13:44.788Z,99189.94
2023-01-22T17:16:12.115Z,99191.44
2023-01-22T17:18:39.429Z,99200.28
2023-01-22T17:21:08.156Z,99199.09
2023-01-22T17:23:35.224Z,99205.56
2023-01-22T17:26:10.108Z,99213.63
2023-01-22T17:28:39.354Z,99222.06
2023-01-22T17:31:08.685Z,99227.78
2023-01-22T17:33:37.561Z,99210.94
2023-01-22T17:36:06.208Z,99212.13
2023-01-22T17:38:37.571Z,99211.78
2023-01-22T17:41:17.414Z,99207.59
2023-01-22T17:43:45.709Z,99208.34
2023-01-22T17:46:16.127Z,99210.72
2023-01-22T17:48:44.081Z,99213.81
2023-01-22T17:51:13.992Z,99216.09
2023-01-22T17:53:42.609Z,99216.41
2023-01-22T17:56:12.170Z,99218.34
2023-01-22T17:58:44.260Z,99215.66
2023-01-22T18:01:13.295Z,99226.44
2023-01-22T18:03:40.920Z,99223.00
2023-01-22T18:06:08.059Z,99228.03
2023-01-22T18:08:38.520Z,99226.88
2023-01-22T18:11:07.636Z,99218.78
2023-01-22T18:13:36.027Z,99229.22
2023-01-22T18:16:03.139Z,99229.56
2023-01-22T18:18:30.291Z,99228.44
2023-01-22T18:20:57.593Z,99242.31
2023-01-22T18:23:25.695Z,99243.50
2023-01-22T18:25:59.792Z,99243.50
2023-01-22T18:28:26.953Z,99244.19
2023-01-22T18:30:54.387Z,99262.59
2023-01-22T18:33:21.669Z,99261.00
2023-01-22T18:35:51.337Z,99256.38
2023-01-22T18:38:23.614Z,99256.69
2023-01-22T18:40:51.073Z,99258.25
2023-01-22T18:43:19.744Z,99260.56
2023-01-22T18:45:46.905Z,99265.56
2023-01-22T18:48:14.737Z,99265.88
2023-01-22T18:50:42.186Z,99268.16
2023-01-22T18:53:09.678Z,99273.13
2023-01-22T18:55:37.048Z,99280.75
2023-01-22T18:58:08.501Z,99284.22
2023-01-22T19:00:37.344Z,99282.28
2023-01-22T19:03:04.460Z,99287.34
2023-01-22T19:05:33.017Z,99294.66
2023-01-22T19:08:00.100Z,99295.41
2023-01-22T19:10:28.028Z,99297.69
2023-01-22T19:12:55.163Z,99305.34
2023-01-22T19:15:24.006Z,99297.28
2023-01-22T19:17:51.134Z,99292.66
2023-01-22T19:20:18.566Z,99301.47
2023-01-22T19:22:45.645Z,99294.50
2023-01-22T19:25:12.993Z,99294.91
2023-01-22T19:27:40.081Z,99298.69
2023-01-22T19:30:07.852Z,99302.56
2023-01-22T19:32:37.912Z,99291.78
2023-01-22T19:35:06.251Z,99305.34
2023-01-22T19:37:33.792Z,99311.56
2023-01-22T19:40:00.908Z,99315.75
2023-01-22T19:42:28.764Z,99306.50
2023-01-22T19:44:55.839Z,99317.63
2023-01-22T19:47:22.903Z,99308.88
2023-01-22T19:49:49.936Z,99298.44
2023-01-22T19:52:18.844Z,99307.63
2023-01-22T19:54:48.221Z,99308.72
2023-01-22T19:57:15.915Z,99316.78
2023-01-22T19:59:43.116Z,99311.81
2023-01-22T20:02:13.890Z,99312.59
2023-01-22T20:04:41.378Z,99313.75
2023-01-22T20:07:08.506Z,99323.34
2023-01-22T20:09:37.870Z,99324.09
2023-01-22T20:12:06.018Z,99317.88
2023-01-22T20:14:38.780Z,99327.88
2023-01-22T20:17:06.284Z,99322.50
2023-01-22T20:19:33.487Z,99327.13
2023-01-22T20:22:03.047Z,99332.09
2023-01-22T20:24:30.079Z,99330.25
2023-01-22T20:26:58.644Z,99332.94
2023-01-22T20:29:26.050Z,99329.50
2023-01-22T20:31:53.810Z,99341.03
2023-01-22T20:34:21.130Z,99341.03
2023-01-22T20:36:48.469Z,99336.06
2023-01-22T20:39:16.149Z,99330.25
2023-01-22T20:41:45.938Z,99334.78
2023-01-22T20:44:13.466Z,99327.81
2023-01-22T20:46:41.274Z,99328.91
2023-01-22T20:49:08.814Z,99345.50
2023-01-22T20:51:36.413Z,99342.09
2023-01-22T20:54:04.038Z,99339.50
2023-01-22T20:56:32.833Z,99343.38
2023-01-22T20:59:09.818Z,99351.03
2023-01-22T21:01:37.699Z,99355.34
2023-01-22T21:04:04.876Z,99355.34
2023-01-22T21:06:33.337Z,99348.75
2023-01-22T21:09:01.257Z,99357.19
2023-01-22T21:11:30.118Z,99358.03
2023-01-22T21:13:58.597Z,99367.19
2023-01-22T21:16:29.744Z,99369.88
2023-01-22T21:18:59.797Z,99378.72
2023-01-22T21:21:27.998Z,99374.50
2023-01-22T21:23:56.002Z,99377.19
2023-01-22T21:26:27.180Z,99377.63
2023-01-22T21:28:59.363Z,99390.34
2023-01-22T21:31:26.888Z,99381.06
2023-01-22T21:34:02.924Z,99392.59
2023-01-22T21:36:41.489Z,99391.84
2023-01-22T21:39:14.354Z,99393.03
2023-01-22T21:41:42.539Z,99393.03
2023-01-22T21:44:30.377Z,99392.28
2023-01-22T21:46:57.474Z,99404.22
2023-01-22T21:49:24.593Z,99403.44
2023-01-22T21:51:56.055Z,99406.50
2023-01-22T21:54:33.670Z,99403.78
2023-01-22T21:57:00.950Z,99411.13
2023-01-22T21:59:28.009Z,99408.06
2023-01-22T22:01:55.323Z,99405.72
2023-01-22T22:04:23.758Z,99404.22
2023-01-22T22:06:50.930Z,99406.06
2023-01-22T22:09:20.580Z,99413.72
2023-01-22T22:11:48.144Z,99405.63
2023-01-22T22:14:17.041Z,99415.66
2023-01-22T22:16:44.555Z,99409.50
2023-01-22T22:19:12.427Z,99426.00
2023-01-22T22:21:39.475Z,99421.78
2023-01-22T22:24:07.440Z,99421.78
2023-01-22T22:26:34.948Z,99423.31
2023-01-22T22:29:03.374Z,99433.31
2023-01-22T22:31:30.576Z,99433.31
2023-01-22T22:33:57.941Z,99439.41
2023-01-22T22:36:26.461Z,99442.00
2023-01-22T22:38:54.275Z,99442.75
2023-01-22T22:41:25.063Z,99444.28
2023-01-22T22:43:53.310Z,99449.66
2023-01-22T22:46:26.616Z,99447.72
2023-01-22T22:48:55.103Z,99455.81
2023-01-22T22:51:24.175Z,99455.47
2023-01-22T22:53:53.430Z,99450.84
2023-01-22T22:56:20.512Z,99448.91
2023-01-22T22:58:47.560Z,99448.91
2023-01-22T23:01:17.994Z,99451.59
2023-01-22T23:03:45.520Z,99453.13
2023-01-22T23:06:17.864Z,99455.47
2023-01-22T23:08:52.224Z,99458.59
2023-01-22T23:11:24.951Z,99452.44
2023-01-22T23:13:52.516Z,99464.41
2023-01-22T23:16:21.707Z,99460.19
2023-01-22T23:18:50.423Z,99449.81
2023-01-22T23:21:23.184Z,99452.50
2023-01-22T23:23:51.430Z,99465.22
2023-01-22T23:26:22.934Z,99459.84
2023-01-22T23:28:52.022Z,99459.84
2023-01-22T23:31:19.404Z,99474.47
2023-01-22T23:33:46.539Z,99469.09
2023-01-22T23:36:17.075Z,99472.53
2023-01-22T23:38:44.767Z,99472.97
2023-01-22T23:41:14.251Z,99478.69
2023-01-22T23:43:42.225Z,99472.53
2023-01-22T23:46:11.096Z,99472.91
2023-01-22T23:48:38.454Z,99471.72
2023-01-22T23:51:07.620Z,99468.28
2023-01-22T23:53:39.964Z,99480.19
2023-01-22T23:56:07.438Z,99480.97
2023-01-22T23:58:35.173Z,99479.84
